createdAt,value
2023-02-21T00:00:34.538Z,7.37
2023-02-21T00:03:39.527Z,7.51
2023-02-21T00:06:28.965Z,7.26
2023-02-21T00:09:16.548Z,7.55
2023-02-21T00:12:02.358Z,7.58
2023-02-21T00:14:55.065Z,7.51
2023-02-21T00:17:41.025Z,7.39
2023-02-21T00:20:27.917Z,6.75
2023-02-21T00:23:13.147Z,7.09
2023-02-21T00:26:00.312Z,6.75
2023-02-21T00:28:46.265Z,6.71
2023-02-21T00:31:32.320Z,6.91
2023-02-21T00:34:17.996Z,6.94
2023-02-21T00:37:03.959Z,6.69
2023-02-21T00:39:49.345Z,6.91
2023-02-21T00:42:36.485Z,6.84
2023-02-21T00:45:22.010Z,6.29
2023-02-21T00:48:08.042Z,6.32
2023-02-21T00:50:53.295Z,6.76
2023-02-21T00:53:42.355Z,6.96
2023-02-21T00:56:27.711Z,6.87
2023-02-21T00:59:14.638Z,7.09
2023-02-21T01:02:00.690Z,6.66
2023-02-21T01:04:46.530Z,6.73
2023-02-21T01:07:32.332Z,7.29
2023-02-21T01:10:18.459Z,7.30
2023-02-21T01:13:04.080Z,6.80
2023-02-21T01:15:50.913Z,7.12
2023-02-21T01:18:36.901Z,7.20
2023-02-21T01:21:22.821Z,7.39
2023-02-21T01:24:08.632Z,7.44
2023-02-21T01:26:54.576Z,7.42
2023-02-21T01:29:40.105Z,6.90
2023-02-21T01:32:27.352Z,7.17
2023-02-21T01:35:12.875Z,7.44
2023-02-21T01:37:58.761Z,6.87
2023-02-21T01:40:44.790Z,7.04
2023-02-21T01:43:34.821Z,6.82
2023-02-21T01:46:20.268Z,7.27
2023-02-21T01:49:09.811Z,7.26
2023-02-21T01:52:00.182Z,6.82
2023-02-21T01:54:52.893Z,7.38
2023-02-21T01:57:41.926Z,7.40
2023-02-21T02:00:30.356Z,6.87
2023-02-21T02:03:18.083Z,6.95
2023-02-21T02:06:07.185Z,7.24
2023-02-21T02:08:54.071Z,7.40
2023-02-21T02:12:01.494Z,6.87
2023-02-21T02:14:49.097Z,7.15
2023-02-21T02:17:27.591Z,7.34
2023-02-21T02:20:26.407Z,7.14
2023-02-21T02:23:11.293Z,7.31
2023-02-21T02:26:06.634Z,7.08
2023-02-21T02:28:52.003Z,6.67
2023-02-21T02:31:40.875Z,6.96
2023-02-21T02:34:44.536Z,6.70
2023-02-21T02:37:21.439Z,7.16
2023-02-21T02:39:56.389Z,6.66
2023-02-21T02:42:37.862Z,6.62
2023-02-21T02:45:11.871Z,6.66
2023-02-21T02:47:41.259Z,7.12
2023-02-21T02:50:12.419Z,7.09
2023-02-21T02:52:50.521Z,6.59
2023-02-21T02:55:30.647Z,7.07
2023-02-21T02:57:58.594Z,7.07
2023-02-21T03:00:26.301Z,6.52
2023-02-21T03:03:14.903Z,6.83
2023-02-21T03:05:58.634Z,7.05
2023-02-21T03:08:31.840Z,7.07
2023-02-21T03:11:03.965Z,7.05
2023-02-21T03:13:38.064Z,6.70
2023-02-21T03:16:12.949Z,6.56
2023-02-21T03:18:44.903Z,6.98
2023-02-21T03:21:18.823Z,6.95
2023-02-21T03:23:50.149Z,6.70
2023-02-21T03:26:20.958Z,6.79
2023-02-21T03:28:50.168Z,6.86
2023-02-21T03:31:23.348Z,6.39
2023-02-21T03:33:50.325Z,6.32
2023-02-21T03:36:18.989Z,6.60
2023-02-21T03:38:46.127Z,6.73
2023-02-21T03:41:15.867Z,6.14
2023-02-21T03:43:43.060Z,6.14
2023-02-21T03:46:10.516Z,6.59
2023-02-21T03:48:37.480Z,6.58
2023-02-21T03:51:05.048Z,6.01
2023-02-21T03:53:33.476Z,6.45
2023-02-21T03:56:00.685Z,6.40
2023-02-21T03:58:28.676Z,6.35
2023-02-21T04:00:56.019Z,5.90
2023-02-21T04:03:23.171Z,6.13
2023-02-21T04:05:50.670Z,5.82
2023-02-21T04:08:17.859Z,6.19
2023-02-21T04:10:52.198Z,6.34
2023-02-21T04:13:20.173Z,5.89
2023-02-21T04:15:47.691Z,6.13
2023-02-21T04:18:14.975Z,5.66
2023-02-21T04:20:42.181Z,6.22
2023-02-21T04:23:09.201Z,6.22
2023-02-21T04:25:36.479Z,6.02
2023-02-21T04:28:05.356Z,5.68
2023-02-21T04:30:32.331Z,6.24
2023-02-21T04:32:59.414Z,6.24
2023-02-21T04:35:26.768Z,6.16
2023-02-21T04:37:53.823Z,6.22
2023-02-21T04:40:21.234Z,5.86
2023-02-21T04:42:48.203Z,6.20
2023-02-21T04:45:17.079Z,5.98
2023-02-21T04:47:44.172Z,5.75
2023-02-21T04:50:12.322Z,6.32
2023-02-21T04:52:41.041Z,5.74
2023-02-21T04:55:08.860Z,6.30
2023-02-21T04:57:35.836Z,6.27
2023-02-21T05:00:07.359Z,5.74
2023-02-21T05:02:35.694Z,5.69
2023-02-21T05:05:06.006Z,6.17
2023-02-21T05:07:33.324Z,5.88
2023-02-21T05:10:00.641Z,5.69
2023-02-21T05:12:27.607Z,6.12
2023-02-21T05:14:55.066Z,5.82
2023-02-21T05:17:22.112Z,6.10
2023-02-21T05:19:51.893Z,6.13
2023-02-21T05:22:20.464Z,6.29
2023-02-21T05:24:49.125Z,6.51
2023-02-21T05:27:16.636Z,6.58
2023-02-21T05:29:46.767Z,5.90
2023-02-21T05:32:13.891Z,6.40
2023-02-21T05:34:44.532Z,6.34
2023-02-21T05:37:13.388Z,5.75
2023-02-21T05:39:40.429Z,6.24
2023-02-21T05:42:07.896Z,6.21
2023-02-21T05:44:35.968Z,5.95
2023-02-21T05:47:03.200Z,6.24
2023-02-21T05:49:30.478Z,6.26
2023-02-21T05:51:57.461Z,6.49
2023-02-21T05:54:25.939Z,6.91
2023-02-21T05:56:53.993Z,7.16
2023-02-21T05:59:22.182Z,7.33
2023-02-21T06:01:49.989Z,7.95
2023-02-21T06:04:17.787Z,8.04
2023-02-21T06:06:45.098Z,7.84
2023-02-21T06:09:13.058Z,8.18
2023-02-21T06:11:41.498Z,8.20
2023-02-21T06:14:14.717Z,8.41
2023-02-21T06:16:41.989Z,8.37
2023-02-21T06:19:10.157Z,8.51
2023-02-21T06:21:37.244Z,8.03
2023-02-21T06:24:04.882Z,8.25
2023-02-21T06:26:31.870Z,8.53
2023-02-21T06:29:00.868Z,8.60
2023-02-21T06:31:27.866Z,8.80
2023-02-21T06:33:55.477Z,9.24
2023-02-21T06:36:24.669Z,9.39
2023-02-21T06:38:55.025Z,9.59
2023-02-21T06:41:25.286Z,10.02
2023-02-21T06:43:52.888Z,10.08
2023-02-21T06:46:23.474Z,10.12
2023-02-21T06:48:51.394Z,9.81
2023-02-21T06:51:18.967Z,10.55
2023-02-21T06:53:50.520Z,11.34
2023-02-21T06:56:17.676Z,11.85
2023-02-21T06:58:48.989Z,12.17
2023-02-21T07:01:16.492Z,12.51
2023-02-21T07:03:47.739Z,12.63
2023-02-21T07:06:14.864Z,12.66
2023-02-21T07:08:42.062Z,12.62
2023-02-21T07:11:09.364Z,12.23
2023-02-21T07:13:36.856Z,10.93
2023-02-21T07:16:05.222Z,9.90
2023-02-21T07:18:33.038Z,9.11
2023-02-21T07:21:01.444Z,8.67
2023-02-21T07:23:28.798Z,7.96
2023-02-21T07:25:55.835Z,8.33
2023-02-21T07:28:23.184Z,8.27
2023-02-21T07:30:51.896Z,8.25
2023-02-21T07:33:19.015Z,8.35
2023-02-21T07:35:46.500Z,8.91
2023-02-21T07:38:21.840Z,8.30
2023-02-21T07:40:49.349Z,8.67
2023-02-21T07:43:17.202Z,9.05
2023-02-21T07:45:44.604Z,9.32
2023-02-21T07:48:14.607Z,9.17
2023-02-21T07:50:41.806Z,9.42
2023-02-21T07:53:11.238Z,9.72
2023-02-21T07:55:39.654Z,10.37
2023-02-21T07:58:07.293Z,10.77
2023-02-21T08:00:34.546Z,11.06
2023-02-21T08:03:02.141Z,11.15
2023-02-21T08:05:29.041Z,11.53
2023-02-21T08:07:56.334Z,11.74
2023-02-21T08:10:25.870Z,11.85
2023-02-21T08:12:54.659Z,12.00
2023-02-21T08:15:22.956Z,12.20
2023-02-21T08:17:50.937Z,12.22
2023-02-21T08:20:18.820Z,12.47
2023-02-21T08:22:46.392Z,12.53
2023-02-21T08:25:15.455Z,12.67
2023-02-21T08:27:43.784Z,12.29
2023-02-21T08:30:14.742Z,12.66
2023-02-21T08:32:48.339Z,12.96
2023-02-21T08:35:16.534Z,12.64
2023-02-21T08:37:45.316Z,13.22
2023-02-21T08:40:12.898Z,13.35
2023-02-21T08:42:40.720Z,13.42
2023-02-21T08:45:10.723Z,13.03
2023-02-21T08:47:39.465Z,13.57
2023-02-21T08:50:06.872Z,13.96
2023-02-21T08:52:34.254Z,14.14
2023-02-21T08:55:01.287Z,14.18
2023-02-21T08:57:28.714Z,14.09
2023-02-21T08:59:56.109Z,14.19
2023-02-21T09:02:29.005Z,13.86
2023-02-21T09:04:57.396Z,14.31
2023-02-21T09:07:24.825Z,14.48
2023-02-21T09:09:51.856Z,14.54
2023-02-21T09:12:18.985Z,14.49
2023-02-21T09:14:46.204Z,14.66
2023-02-21T09:17:14.208Z,14.72
2023-02-21T09:19:41.767Z,15.13
2023-02-21T09:22:11.344Z,15.18
2023-02-21T09:24:38.695Z,15.25
2023-02-21T09:27:06.813Z,15.23
2023-02-21T09:29:46.021Z,15.29
2023-02-21T09:32:14.768Z,15.46
2023-02-21T09:34:41.841Z,15.59
2023-02-21T09:37:09.247Z,15.61
2023-02-21T09:39:39.464Z,15.69
2023-02-21T09:42:07.103Z,15.78
2023-02-21T09:44:34.918Z,15.74
2023-02-21T09:47:05.369Z,15.95
2023-02-21T09:49:35.482Z,15.96
2023-02-21T09:52:03.591Z,16.07
2023-02-21T09:54:33.726Z,16.01
2023-02-21T09:57:05.127Z,16.02
2023-02-21T09:59:32.940Z,15.90
2023-02-21T10:02:18.796Z,16.25
2023-02-21T10:05:03.957Z,16.39
2023-02-21T10:07:40.712Z,16.14
2023-02-21T10:10:14.575Z,16.26
2023-02-21T10:12:54.267Z,16.36
2023-02-21T10:15:36.495Z,16.56
2023-02-21T10:18:08.650Z,16.66
2023-02-21T10:20:39.441Z,16.61
2023-02-21T10:23:16.020Z,16.62
2023-02-21T10:25:44.744Z,16.51
2023-02-21T10:28:18.425Z,16.76
2023-02-21T10:30:47.731Z,17.11
2023-02-21T10:33:15.390Z,16.88
2023-02-21T10:35:42.854Z,17.11
2023-02-21T10:38:20.526Z,16.98
2023-02-21T10:40:52.190Z,17.00
2023-02-21T10:43:28.155Z,16.93
2023-02-21T10:46:01.399Z,16.87
2023-02-21T10:48:34.859Z,17.05
2023-02-21T10:51:08.002Z,17.14
2023-02-21T10:53:37.293Z,17.16
2023-02-21T10:56:24.568Z,16.55
2023-02-21T10:58:56.488Z,17.17
2023-02-21T11:01:37.070Z,17.11
2023-02-21T11:04:07.139Z,17.34
2023-02-21T11:06:40.004Z,17.36
2023-02-21T11:09:30.949Z,17.27
2023-02-21T11:12:03.739Z,17.43
2023-02-21T11:14:33.769Z,16.95
2023-02-21T11:17:16.150Z,17.49
2023-02-21T11:19:52.206Z,17.54
2023-02-21T11:22:22.868Z,17.55
2023-02-21T11:24:55.679Z,17.30
2023-02-21T11:27:23.513Z,17.70
2023-02-21T11:29:53.917Z,17.70
2023-02-21T11:32:26.248Z,17.05
2023-02-21T11:35:02.658Z,17.49
2023-02-21T11:37:29.983Z,17.97
2023-02-21T11:39:59.672Z,18.02
2023-02-21T11:42:29.933Z,17.98
2023-02-21T11:45:28.443Z,18.01
2023-02-21T11:48:01.369Z,17.99
2023-02-21T11:50:34.242Z,18.01
2023-02-21T11:53:06.798Z,18.04
2023-02-21T11:55:38.884Z,18.00
2023-02-21T11:58:17.829Z,18.15
2023-02-21T12:01:02.349Z,18.33
2023-02-21T12:03:52.348Z,18.30
2023-02-21T12:06:30.187Z,18.32
2023-02-21T12:09:10.841Z,18.33
2023-02-21T12:11:55.841Z,18.25
2023-02-21T12:14:52.289Z,18.24
2023-02-21T12:17:48.607Z,18.38
2023-02-21T12:20:28.270Z,18.42
2023-02-21T12:23:07.022Z,18.39
2023-02-21T12:25:39.393Z,18.47
2023-02-21T12:28:18.623Z,18.37
2023-02-21T12:30:58.062Z,18.61
2023-02-21T12:33:39.097Z,18.67
2023-02-21T12:36:17.207Z,18.65
2023-02-21T12:38:55.062Z,18.66
2023-02-21T12:41:37.715Z,18.66
2023-02-21T12:44:13.500Z,18.71
2023-02-21T12:46:46.503Z,18.81
2023-02-21T12:49:21.541Z,18.77
2023-02-21T12:51:54.332Z,18.88
2023-02-21T12:54:27.067Z,18.88
2023-02-21T12:57:01.711Z,18.81
2023-02-21T12:59:37.046Z,18.88
2023-02-21T13:02:15.743Z,18.94
2023-02-21T13:04:47.146Z,18.92
2023-02-21T13:07:25.626Z,18.93
2023-02-21T13:09:59.828Z,18.92
2023-02-21T13:12:33.927Z,18.94
2023-02-21T13:15:13.384Z,18.90
2023-02-21T13:17:41.730Z,18.90
2023-02-21T13:20:17.995Z,18.98
2023-02-21T13:23:41.461Z,19.02
2023-02-21T13:26:31.287Z,18.81
2023-02-21T13:29:01.619Z,19.05
2023-02-21T13:31:41.115Z,18.98
2023-02-21T13:34:11.551Z,18.72
2023-02-21T13:36:44.361Z,18.94
2023-02-21T13:39:14.846Z,18.93
2023-02-21T13:41:45.342Z,18.89
2023-02-21T13:44:19.009Z,18.94
2023-02-21T13:47:11.799Z,18.87
2023-02-21T13:49:43.121Z,18.83
2023-02-21T13:53:02.347Z,18.97
2023-02-21T13:55:31.603Z,19.01
2023-02-21T13:58:38.462Z,18.97
2023-02-21T14:01:42.563Z,18.96
2023-02-21T14:05:02.020Z,18.94
2023-02-21T14:07:56.256Z,18.88
2023-02-21T14:10:42.282Z,18.85
2023-02-21T14:13:21.361Z,18.74
2023-02-21T14:15:57.212Z,18.71
2023-02-21T14:18:27.092Z,18.68
2023-02-21T14:20:57.979Z,18.64
2023-02-21T14:23:40.798Z,18.71
2023-02-21T14:26:40.289Z,18.66
2023-02-21T14:29:14.643Z,18.61
2023-02-21T14:31:52.598Z,18.61
2023-02-21T14:34:35.836Z,18.54
2023-02-21T14:37:11.489Z,18.59
2023-02-21T14:39:41.383Z,18.61
2023-02-21T14:42:24.408Z,18.54
2023-02-21T14:45:07.829Z,18.45
2023-02-21T14:47:51.428Z,18.42
2023-02-21T14:50:32.422Z,18.35
2023-02-21T14:53:34.912Z,18.33
2023-02-21T14:56:31.024Z,18.33
2023-02-21T14:59:26.776Z,18.30
2023-02-21T15:02:04.939Z,18.19
2023-02-21T15:04:39.506Z,18.22
2023-02-21T15:07:18.845Z,18.18
2023-02-21T15:10:03.772Z,18.16
2023-02-21T15:12:31.012Z,18.05
2023-02-21T15:14:59.705Z,17.95
2023-02-21T15:17:27.097Z,17.91
2023-02-21T15:20:02.394Z,17.84
2023-02-21T15:22:29.577Z,17.82
2023-02-21T15:25:11.314Z,17.72
2023-02-21T15:27:53.876Z,17.61
2023-02-21T15:30:25.448Z,17.48
2023-02-21T15:32:57.674Z,17.48
2023-02-21T15:35:33.643Z,17.38
2023-02-21T15:38:05.676Z,17.30
2023-02-21T15:40:33.313Z,17.27
2023-02-21T15:43:02.685Z,17.19
2023-02-21T15:45:33.991Z,17.10
2023-02-21T15:48:03.536Z,16.98
2023-02-21T15:50:34.724Z,16.90
2023-02-21T15:53:20.731Z,16.79
2023-02-21T15:55:49.326Z,16.72
2023-02-21T15:58:23.910Z,16.65
2023-02-21T16:01:07.219Z,16.37
2023-02-21T16:03:37.030Z,16.23
2023-02-21T16:06:18.648Z,16.23
2023-02-21T16:08:59.720Z,16.24
2023-02-21T16:11:40.986Z,16.19
2023-02-21T16:14:16.472Z,16.07
2023-02-21T16:16:46.261Z,16.02
2023-02-21T16:19:13.443Z,15.71
2023-02-21T16:21:40.649Z,15.79
2023-02-21T16:24:29.380Z,15.67
2023-02-21T16:27:04.488Z,15.65
2023-02-21T16:29:31.683Z,15.60
2023-02-21T16:32:00.487Z,15.55
2023-02-21T16:34:30.653Z,15.52
2023-02-21T16:37:02.367Z,15.45
2023-02-21T16:39:30.801Z,15.35
2023-02-21T16:41:58.558Z,15.33
2023-02-21T16:44:25.612Z,15.29
2023-02-21T16:46:54.312Z,15.25
2023-02-21T16:49:22.860Z,15.16
2023-02-21T16:51:50.805Z,15.13
2023-02-21T16:54:18.131Z,15.08
2023-02-21T16:56:47.926Z,15.01
2023-02-21T16:59:19.221Z,14.82
2023-02-21T17:01:47.055Z,14.84
2023-02-21T17:04:18.279Z,14.91
2023-02-21T17:06:51.851Z,15.03
2023-02-21T17:09:24.996Z,14.78
2023-02-21T17:11:53.161Z,14.40
2023-02-21T17:14:21.317Z,14.65
2023-02-21T17:16:56.290Z,14.55
2023-02-21T17:19:24.857Z,14.45
2023-02-21T17:21:54.038Z,14.41
2023-02-21T17:24:20.983Z,14.32
2023-02-21T17:26:48.366Z,14.28
2023-02-21T17:29:18.145Z,14.21
2023-02-21T17:31:51.580Z,14.13
2023-02-21T17:34:18.756Z,14.12
2023-02-21T17:36:48.858Z,13.86
2023-02-21T17:39:17.817Z,14.17
2023-02-21T17:41:46.359Z,14.28
2023-02-21T17:44:19.280Z,14.38
2023-02-21T17:46:48.434Z,14.61
2023-02-21T17:49:16.240Z,14.67
2023-02-21T17:51:43.544Z,14.68
2023-02-21T17:54:10.596Z,14.74
2023-02-21T17:56:39.612Z,14.52
2023-02-21T17:59:06.807Z,14.36
2023-02-21T18:01:35.970Z,14.07
2023-02-21T18:04:03.424Z,14.09
2023-02-21T18:06:30.810Z,14.00
2023-02-21T18:08:57.772Z,13.89
2023-02-21T18:11:25.411Z,13.76
2023-02-21T18:13:55.638Z,13.65
2023-02-21T18:16:23.370Z,13.55
2023-02-21T18:18:50.938Z,13.41
2023-02-21T18:21:22.290Z,13.27
2023-02-21T18:23:50.981Z,12.80
2023-02-21T18:26:21.732Z,13.10
2023-02-21T18:28:49.311Z,12.92
2023-02-21T18:31:19.811Z,12.84
2023-02-21T18:33:48.782Z,12.85
2023-02-21T18:36:15.972Z,12.76
2023-02-21T18:38:43.047Z,11.83
2023-02-21T18:41:11.537Z,12.51
2023-02-21T18:43:38.807Z,12.53
2023-02-21T18:46:11.612Z,12.46
2023-02-21T18:48:42.031Z,12.36
2023-02-21T18:51:10.543Z,12.20
2023-02-21T18:53:37.964Z,12.19
2023-02-21T18:56:10.437Z,12.12
2023-02-21T18:58:38.120Z,12.00
2023-02-21T19:01:06.810Z,12.05
2023-02-21T19:03:34.245Z,11.96
2023-02-21T19:06:02.828Z,11.92
2023-02-21T19:08:30.234Z,11.81
2023-02-21T19:10:57.436Z,11.81
2023-02-21T19:13:26.979Z,11.74
2023-02-21T19:15:57.231Z,11.68
2023-02-21T19:18:24.219Z,11.67
2023-02-21T19:20:56.697Z,11.51
2023-02-21T19:23:27.329Z,11.67
2023-02-21T19:25:55.405Z,11.70
2023-02-21T19:28:24.054Z,11.70
2023-02-21T19:30:51.128Z,11.71
2023-02-21T19:33:18.663Z,11.52
2023-02-21T19:35:46.130Z,11.75
2023-02-21T19:38:15.923Z,11.79
2023-02-21T19:40:45.040Z,11.81
2023-02-21T19:43:16.197Z,11.74
2023-02-21T19:45:44.852Z,11.71
2023-02-21T19:48:11.825Z,11.65
2023-02-21T19:50:39.704Z,11.50
2023-02-21T19:53:09.783Z,11.61
2023-02-21T19:55:37.152Z,11.65
2023-02-21T19:58:08.504Z,11.65
2023-02-21T20:00:36.983Z,11.70
2023-02-21T20:03:05.733Z,11.74
2023-02-21T20:05:33.094Z,11.74
2023-02-21T20:08:00.124Z,11.66
2023-02-21T20:10:27.343Z,11.60
2023-02-21T20:12:56.736Z,11.51
2023-02-21T20:15:28.512Z,11.37
2023-02-21T20:17:55.782Z,11.35
2023-02-21T20:20:22.956Z,11.31
2023-02-21T20:22:49.985Z,11.24
2023-02-21T20:25:17.336Z,11.18
2023-02-21T20:27:44.316Z,11.09
2023-02-21T20:30:12.917Z,11.01
2023-02-21T20:32:41.722Z,10.98
2023-02-21T20:35:10.251Z,10.94
2023-02-21T20:37:40.027Z,10.89
2023-02-21T20:40:10.892Z,10.78
2023-02-21T20:42:38.158Z,10.72
2023-02-21T20:45:08.359Z,10.71
2023-02-21T20:47:35.323Z,10.69
2023-02-21T20:50:04.565Z,10.68
2023-02-21T20:52:31.367Z,10.63
2023-02-21T20:54:58.650Z,10.58
2023-02-21T20:57:27.086Z,10.55
2023-02-21T20:59:54.223Z,10.54
2023-02-21T21:02:21.259Z,10.52
2023-02-21T21:04:48.560Z,10.47
2023-02-21T21:07:22.456Z,10.49
2023-02-21T21:09:50.342Z,10.45
2023-02-21T21:12:19.133Z,10.45
2023-02-21T21:14:47.377Z,10.41
2023-02-21T21:17:20.613Z,10.37
2023-02-21T21:19:49.354Z,10.34
2023-02-21T21:22:32.767Z,10.24
2023-02-21T21:25:05.484Z,10.23
2023-02-21T21:27:40.560Z,10.15
2023-02-21T21:30:12.367Z,10.18
2023-02-21T21:32:45.564Z,9.94
2023-02-21T21:35:16.869Z,10.14
2023-02-21T21:37:46.214Z,10.04
2023-02-21T21:40:17.944Z,10.18
2023-02-21T21:42:52.054Z,10.19
2023-02-21T21:45:26.537Z,10.10
2023-02-21T21:48:02.543Z,10.16
2023-02-21T21:50:30.036Z,9.50
2023-02-21T21:53:00.305Z,10.12
2023-02-21T21:55:29.920Z,10.02
2023-02-21T21:57:59.824Z,10.07
2023-02-21T22:00:29.418Z,9.92
2023-02-21T22:03:00.371Z,10.06
2023-02-21T22:05:35.438Z,9.94
2023-02-21T22:08:09.270Z,10.03
2023-02-21T22:10:40.263Z,9.98
2023-02-21T22:13:13.603Z,9.99
2023-02-21T22:15:45.003Z,10.11
2023-02-21T22:18:18.299Z,10.13
2023-02-21T22:20:50.671Z,10.08
2023-02-21T22:23:26.308Z,10.00
2023-02-21T22:25:57.201Z,10.12
2023-02-21T22:28:25.737Z,10.10
2023-02-21T22:30:53.000Z,10.10
2023-02-21T22:33:24.184Z,10.12
2023-02-21T22:35:51.521Z,10.11
2023-02-21T22:38:24.737Z,10.10
2023-02-21T22:40:51.983Z,10.07
2023-02-21T22:43:20.045Z,10.05
2023-02-21T22:45:50.294Z,10.07
2023-02-21T22:48:20.578Z,10.05
2023-02-21T22:50:48.746Z,10.04
2023-02-21T22:53:18.947Z,10.00
2023-02-21T22:55:52.094Z,9.88
2023-02-21T22:58:20.549Z,9.97
2023-02-21T23:00:48.820Z,10.05
2023-02-21T23:03:16.671Z,10.02
2023-02-21T23:05:45.891Z,9.85
2023-02-21T23:08:15.083Z,9.91
2023-02-21T23:10:43.049Z,9.99
2023-02-21T23:13:16.899Z,9.98
2023-02-21T23:15:45.397Z,9.95
2023-02-21T23:18:21.056Z,9.95
2023-02-21T23:20:52.598Z,9.95
2023-02-21T23:23:20.766Z,9.90
2023-02-21T23:25:48.369Z,9.84
2023-02-21T23:28:17.374Z,9.77
2023-02-21T23:30:46.168Z,9.67
2023-02-21T23:33:15.926Z,9.38
2023-02-21T23:35:44.296Z,9.38
2023-02-21T23:38:15.584Z,9.28
2023-02-21T23:40:44.285Z,9.29
2023-02-21T23:43:12.053Z,9.30
2023-02-21T23:45:41.015Z,9.21
2023-02-21T23:48:10.337Z,9.29
2023-02-21T23:50:37.756Z,9.14
2023-02-21T23:53:05.976Z,9.25
2023-02-21T23:55:35.855Z,9.23
2023-02-21T23:58:08.809Z,9.22
